Time;durP1;ratioP1;P1;durP2;ratioP2;P2;SDS_P1;SDS_P2;PMS_P1;PMS_P2;Temp;Humidity;BMP_temperature;BMP_pressure;BME280_temperature;BME280_humidity;BME280_pressure;Samples;Min_cycle;Max_cycle;Signal;HPM_P1;HPM_P2
2023/08/22 00:00:22;;;;;;;;;;;20.50;97.50;;;;;;5092509;28;20077;-71
2023/08/22 00:02:47;;;;;;;;;;;20.50;97.50;;;;;;5092574;28;19912;-71
2023/08/22 00:05:13;;;;;;;;;;;20.50;97.50;;;;;;5092218;28;20352;-71
2023/08/22 00:07:39;;;;;;;;;;;20.50;97.40;;;;;;5091505;28;20234;-70
2023/08/22 00:10:05;;;;;;;;;;;20.50;97.50;;;;;;5090990;28;20678;-71
2023/08/22 00:12:31;;;;;;;;;;;20.40;97.70;;;;;;5091550;28;19920;-70
2023/08/22 00:14:57;;;;;;;;;;;20.40;97.80;;;;;;5091997;28;20066;-71
2023/08/22 00:17:24;;;;;;;;;;;20.40;97.90;;;;;;5091027;28;19912;-70
2023/08/22 00:19:50;;;;;;;;;;;20.30;98.00;;;;;;5091378;28;20415;-71
2023/08/22 00:22:16;;;;;;;;;;;20.30;98.00;;;;;;5090930;28;19954;-72
2023/08/22 00:24:41;;;;;;;;;;;20.30;98.10;;;;;;5091998;28;20365;-73
2023/08/22 00:27:07;;;;;;;;;;;20.20;98.30;;;;;;5091964;28;20258;-71
2023/08/22 00:29:32;;;;;;;;;;;20.10;98.40;;;;;;5091873;28;19912;-71
2023/08/22 00:31:58;;;;;;;;;;;20.20;98.20;;;;;;5092049;28;20251;-73
2023/08/22 00:34:24;;;;;;;;;;;20.20;98.30;;;;;;5091596;28;20342;-71
2023/08/22 00:36:50;;;;;;;;;;;20.10;98.40;;;;;;5091859;28;19916;-71
2023/08/22 00:39:15;;;;;;;;;;;20.10;98.70;;;;;;5091292;28;19923;-71
2023/08/22 00:41:41;;;;;;;;;;;20.00;98.80;;;;;;5091538;28;19942;-71
2023/08/22 00:44:07;;;;;;;;;;;20.00;98.80;;;;;;5091830;28;19908;-72
2023/08/22 00:46:33;;;;;;;;;;;20.00;99.00;;;;;;5091141;28;19904;-72
2023/08/22 00:48:58;;;;;;;;;;;20.10;98.70;;;;;;5091417;28;19927;-71
2023/08/22 00:51:24;;;;;;;;;;;20.10;98.70;;;;;;5090420;28;20398;-71
2023/08/22 00:53:50;;;;;;;;;;;20.10;99.10;;;;;;5091400;28;19927;-71
2023/08/22 00:56:15;;;;;;;;;;;20.10;99.40;;;;;;5091826;28;20317;-71
2023/08/22 00:58:41;;;;;;;;;;;20.10;99.50;;;;;;5091789;28;19965;-71
2023/08/22 01:01:08;;;;;;;;;;;20.00;99.50;;;;;;5091499;28;19946;-71
2023/08/22 01:03:34;;;;;;;;;;;19.90;99.50;;;;;;5091312;28;20261;-71
2023/08/22 01:06:04;;;;;;;;;;;19.90;99.60;;;;;;5091442;28;19920;-71
2023/08/22 01:08:34;;;;;;;;;;;19.90;99.60;;;;;;5091113;28;19920;-72
2023/08/22 01:11:06;;;;;;;;;;;19.90;99.60;;;;;;5091577;28;20324;-72
2023/08/22 01:13:33;;;;;;;;;;;19.80;99.70;;;;;;5091715;28;20243;-72
2023/08/22 01:15:59;;;;;;;;;;;19.80;99.80;;;;;;5091445;28;19943;-72
2023/08/22 01:18:25;;;;;;;;;;;19.90;99.90;;;;;;5091354;28;19916;-72
2023/08/22 01:20:51;;;;;;;;;;;19.80;99.90;;;;;;5090755;28;19999;-72
2023/08/22 01:23:16;;;;;;;;;;;19.90;99.90;;;;;;5090763;28;20401;-72
2023/08/22 01:25:42;;;;;;;;;;;19.80;99.90;;;;;;5091255;28;19964;-72
2023/08/22 01:28:20;;;;;;;;;;;19.80;99.90;;;;;;5090116;28;19916;-72
2023/08/22 01:30:58;;;;;;;;;;;19.70;99.90;;;;;;5090888;28;19917;-72
2023/08/22 01:33:32;;;;;;;;;;;19.70;99.90;;;;;;5090752;28;19956;-73
2023/08/22 01:35:57;;;;;;;;;;;19.60;99.90;;;;;;5090797;28;19912;-73
2023/08/22 01:38:25;;;;;;;;;;;19.60;99.90;;;;;;5090948;28;20262;-73
2023/08/22 01:40:52;;;;;;;;;;;19.60;99.90;;;;;;5091255;28;19916;-73
2023/08/22 01:43:19;;;;;;;;;;;19.60;99.90;;;;;;5091121;28;19912;-73
2023/08/22 01:45:45;;;;;;;;;;;19.50;99.90;;;;;;5091092;28;19912;-71
2023/08/22 01:48:10;;;;;;;;;;;19.50;99.90;;;;;;5090841;28;19916;-72
2023/08/22 01:50:36;;;;;;;;;;;19.50;99.90;;;;;;5090698;28;19912;-71
2023/08/22 01:53:01;;;;;;;;;;;19.60;99.90;;;;;;5090571;28;20334;-71
2023/08/22 01:55:27;;;;;;;;;;;19.60;99.90;;;;;;5091135;28;20049;-71
2023/08/22 01:57:52;;;;;;;;;;;19.60;99.90;;;;;;5090608;28;19981;-72
2023/08/22 02:00:18;;;;;;;;;;;19.60;99.90;;;;;;5090643;28;19912;-72
2023/08/22 02:02:44;;;;;;;;;;;19.60;99.90;;;;;;5089480;28;19912;-72
2023/08/22 02:05:09;;;;;;;;;;;19.60;99.90;;;;;;5090521;28;20215;-71
2023/08/22 02:07:35;;;;;;;;;;;19.60;99.90;;;;;;5090008;28;20305;-72
2023/08/22 02:10:01;;;;;;;;;;;19.70;99.90;;;;;;5090658;28;20472;-72
2023/08/22 02:12:26;;;;;;;;;;;19.70;99.90;;;;;;5090766;28;20232;-71
2023/08/22 02:14:53;;;;;;;;;;;19.80;99.90;;;;;;5090550;28;19913;-71
2023/08/22 02:17:19;;;;;;;;;;;19.80;99.90;;;;;;5090455;28;19970;-70
2023/08/22 02:19:45;;;;;;;;;;;19.70;99.90;;;;;;5089997;28;20378;-70
2023/08/22 02:22:10;;;;;;;;;;;19.70;99.90;;;;;;5090566;28;20014;-71
2023/08/22 02:24:36;;;;;;;;;;;19.70;99.90;;;;;;5090606;28;19991;-71
2023/08/22 02:27:03;;;;;;;;;;;19.80;99.90;;;;;;5090546;28;20337;-71
2023/08/22 02:29:29;;;;;;;;;;;19.80;99.90;;;;;;5090321;28;19927;-72
2023/08/22 02:31:55;;;;;;;;;;;19.90;99.90;;;;;;5090030;28;19908;-71
2023/08/22 02:34:21;;;;;;;;;;;19.80;99.90;;;;;;5090284;28;19928;-71
2023/08/22 02:36:47;;;;;;;;;;;19.80;99.90;;;;;;5092452;28;19923;-71
2023/08/22 02:39:13;;;;;;;;;;;19.80;99.90;;;;;;5094035;28;19916;-71
2023/08/22 02:41:39;;;;;;;;;;;19.90;99.90;;;;;;5094083;28;19962;-71
2023/08/22 02:44:04;;;;;;;;;;;20.00;99.40;;;;;;5093862;28;19961;-71
2023/08/22 02:46:30;;;;;;;;;;;20.00;99.10;;;;;;5093182;28;19904;-71
2023/08/22 02:48:56;;;;;;;;;;;20.00;99.20;;;;;;5094208;28;19951;-71
2023/08/22 02:51:21;;;;;;;;;;;20.10;99.00;;;;;;5092797;28;20517;-71
2023/08/22 02:53:47;;;;;;;;;;;20.10;98.70;;;;;;5094165;28;19966;-71
2023/08/22 02:56:12;;;;;;;;;;;20.20;98.90;;;;;;5093602;28;20015;-71
2023/08/22 02:58:38;;;;;;;;;;;20.20;99.20;;;;;;5094060;28;20356;-72
2023/08/22 03:01:05;;;;;;;;;;;20.20;99.40;;;;;;5093552;28;19973;-72
2023/08/22 03:03:33;;;;;;;;;;;20.10;99.40;;;;;;5092487;28;19916;-72
2023/08/22 03:05:59;;;;;;;;;;;20.20;99.50;;;;;;5093617;28;20015;-72
2023/08/22 03:08:24;;;;;;;;;;;20.20;99.90;;;;;;5093261;28;20003;-71
2023/08/22 03:10:50;;;;;;;;;;;20.20;99.90;;;;;;5092770;28;20302;-72
2023/08/22 03:13:15;;;;;;;;;;;20.10;99.90;;;;;;5093405;28;19951;-71
2023/08/22 03:15:41;;;;;;;;;;;20.10;99.90;;;;;;5093211;28;19952;-72
2023/08/22 03:18:07;;;;;;;;;;;20.20;99.70;;;;;;5091941;28;19924;-71
2023/08/22 03:20:33;;;;;;;;;;;20.20;99.90;;;;;;5093009;28;19951;-71
2023/08/22 03:22:59;;;;;;;;;;;20.30;99.50;;;;;;5093281;28;20334;-71
2023/08/22 03:25:25;;;;;;;;;;;20.30;99.90;;;;;;5093530;28;19900;-71
2023/08/22 03:27:50;;;;;;;;;;;20.30;99.60;;;;;;5093154;28;19916;-70
2023/08/22 03:30:16;;;;;;;;;;;20.40;99.70;;;;;;5091906;28;20379;-71
2023/08/22 03:32:41;;;;;;;;;;;20.50;99.60;;;;;;5092959;28;19959;-73
2023/08/22 03:35:07;;;;;;;;;;;20.50;99.80;;;;;;5092742;28;19920;-71
2023/08/22 03:37:33;;;;;;;;;;;20.50;99.90;;;;;;5093258;28;19999;-70
2023/08/22 03:39:58;;;;;;;;;;;20.50;99.90;;;;;;5091732;28;20103;-70
2023/08/22 03:42:24;;;;;;;;;;;20.50;99.90;;;;;;5091832;28;19912;-71
2023/08/22 03:44:50;;;;;;;;;;;20.60;99.80;;;;;;5092722;28;19927;-72
2023/08/22 03:47:16;;;;;;;;;;;20.60;99.80;;;;;;5091855;28;19912;-72
2023/08/22 03:49:42;;;;;;;;;;;20.50;99.90;;;;;;5093108;28;20352;-71
2023/08/22 03:52:07;;;;;;;;;;;20.60;99.90;;;;;;5092677;28;19970;-71
2023/08/22 03:54:33;;;;;;;;;;;20.60;99.90;;;;;;5092788;28;19916;-71
2023/08/22 03:56:58;;;;;;;;;;;20.70;99.90;;;;;;5092884;28;20294;-70
2023/08/22 03:59:24;;;;;;;;;;;20.60;99.90;;;;;;5092727;28;19916;-71
2023/08/22 04:01:50;;;;;;;;;;;20.60;99.90;;;;;;5092788;28;19912;-71
2023/08/22 04:04:16;;;;;;;;;;;20.60;99.90;;;;;;5091184;28;19948;-70
2023/08/22 04:06:42;;;;;;;;;;;20.60;99.90;;;;;;5092369;28;19912;-71
2023/08/22 04:09:08;;;;;;;;;;;20.60;99.90;;;;;;5092288;28;19919;-71
2023/08/22 04:11:34;;;;;;;;;;;20.60;99.90;;;;;;5092584;28;20226;-70
2023/08/22 04:14:00;;;;;;;;;;;20.50;99.90;;;;;;5091280;28;19912;-71
2023/08/22 04:16:25;;;;;;;;;;;20.40;99.70;;;;;;5091761;28;20268;-71
2023/08/22 04:18:51;;;;;;;;;;;20.40;99.60;;;;;;5092311;28;19927;-72
2023/08/22 04:21:17;;;;;;;;;;;20.40;99.50;;;;;;5092103;28;19912;-72
2023/08/22 04:23:42;;;;;;;;;;;20.40;99.80;;;;;;5091882;28;19939;-71
2023/08/22 04:26:08;;;;;;;;;;;20.50;99.80;;;;;;5091860;28;20219;-71
2023/08/22 04:28:34;;;;;;;;;;;20.50;99.80;;;;;;5092286;28;20021;-71
2023/08/22 04:30:59;;;;;;;;;;;20.50;99.90;;;;;;5091994;28;19988;-70
2023/08/22 04:33:25;;;;;;;;;;;20.50;99.90;;;;;;5091762;28;20249;-70
2023/08/22 04:35:51;;;;;;;;;;;20.50;99.90;;;;;;5091759;28;19916;-70
2023/08/22 04:38:16;;;;;;;;;;;20.50;99.90;;;;;;5091669;28;20029;-71
2023/08/22 04:40:42;;;;;;;;;;;20.50;99.90;;;;;;5091962;28;19904;-71
2023/08/22 04:43:08;;;;;;;;;;;20.50;99.90;;;;;;5091686;28;19912;-71
2023/08/22 04:45:34;;;;;;;;;;;20.50;99.90;;;;;;5091349;28;19916;-71
2023/08/22 04:47:59;;;;;;;;;;;20.50;99.90;;;;;;5090537;28;20406;-70
2023/08/22 04:50:25;;;;;;;;;;;20.40;99.90;;;;;;5091412;28;19923;-70
2023/08/22 04:52:50;;;;;;;;;;;20.40;99.90;;;;;;5090688;28;20435;-72
2023/08/22 04:55:16;;;;;;;;;;;20.40;99.90;;;;;;5091410;28;19951;-70
2023/08/22 04:57:41;;;;;;;;;;;20.50;99.90;;;;;;5091444;28;19923;-70
2023/08/22 05:00:09;;;;;;;;;;;20.50;99.90;;;;;;5090882;28;20265;-70
2023/08/22 05:02:35;;;;;;;;;;;20.60;99.90;;;;;;5091085;28;19971;-69
2023/08/22 05:05:01;;;;;;;;;;;20.60;99.90;;;;;;5091185;28;20060;-69
2023/08/22 05:07:26;;;;;;;;;;;20.60;99.90;;;;;;5091477;28;19949;-70
2023/08/22 05:09:52;;;;;;;;;;;20.60;99.90;;;;;;5090995;28;19916;-70
2023/08/22 05:12:17;;;;;;;;;;;20.60;99.90;;;;;;5091166;28;19923;-73
2023/08/22 05:14:43;;;;;;;;;;;20.60;99.90;;;;;;5074962;28;20346;-70
2023/08/22 05:17:08;;;;;;;;;;;20.50;99.90;;;;;;5070750;28;20270;-69
2023/08/22 05:19:34;;;;;;;;;;;20.60;99.90;;;;;;5071173;28;19908;-70
2023/08/22 05:22:00;;;;;;;;;;;20.60;99.90;;;;;;5070957;28;19952;-70
2023/08/22 05:24:25;;;;;;;;;;;20.60;99.90;;;;;;5070782;28;19920;-70
2023/08/22 05:26:51;;;;;;;;;;;20.60;99.90;;;;;;5070830;28;20408;-69
2023/08/22 05:29:19;;;;;;;;;;;20.60;99.90;;;;;;5070496;28;20334;-69
2023/08/22 05:31:44;;;;;;;;;;;20.70;99.90;;;;;;5071019;28;20385;-68
2023/08/22 05:34:10;;;;;;;;;;;20.80;99.90;;;;;;5070641;28;20279;-69
2023/08/22 05:36:36;;;;;;;;;;;20.80;99.90;;;;;;5070703;28;20334;-68
2023/08/22 05:39:01;;;;;;;;;;;20.90;99.90;;;;;;5070779;28;19942;-67
2023/08/22 05:41:27;;;;;;;;;;;20.90;99.90;;;;;;5070628;28;19912;-68
2023/08/22 05:43:53;;;;;;;;;;;21.00;99.90;;;;;;5071002;28;19908;-69
2023/08/22 05:46:18;;;;;;;;;;;21.00;99.90;;;;;;5070271;28;19916;-69
2023/08/22 05:48:44;;;;;;;;;;;21.10;99.90;;;;;;5070287;28;19912;-68
2023/08/22 05:51:09;;;;;;;;;;;21.10;99.90;;;;;;5070505;28;19927;-68
2023/08/22 05:53:35;;;;;;;;;;;21.10;99.90;;;;;;5070333;28;19923;-68
2023/08/22 05:56:00;;;;;;;;;;;21.10;99.90;;;;;;5070541;28;19916;-67
2023/08/22 05:58:26;;;;;;;;;;;21.10;99.90;;;;;;5071253;28;20370;-67
2023/08/22 06:00:52;;;;;;;;;;;21.20;99.90;;;;;;5070076;28;19912;-68
2023/08/22 06:03:18;;;;;;;;;;;21.20;99.90;;;;;;5070379;28;20250;-68
2023/08/22 06:05:44;;;;;;;;;;;21.20;99.90;;;;;;5070268;28;19977;-68
2023/08/22 06:08:09;;;;;;;;;;;21.20;99.90;;;;;;5070040;28;20011;-68
2023/08/22 06:10:35;;;;;;;;;;;21.20;99.90;;;;;;5070948;28;20414;-68
2023/08/22 06:13:00;;;;;;;;;;;21.30;99.90;;;;;;5074168;28;19916;-68
2023/08/22 06:15:26;;;;;;;;;;;21.30;99.90;;;;;;5073086;28;19923;-68
2023/08/22 06:17:51;;;;;;;;;;;21.40;99.90;;;;;;5073868;28;19913;-67
2023/08/22 06:20:17;;;;;;;;;;;21.40;99.90;;;;;;5073912;28;19909;-68
2023/08/22 06:22:42;;;;;;;;;;;21.40;99.90;;;;;;5074127;28;19908;-68
2023/08/22 06:25:08;;;;;;;;;;;21.40;99.90;;;;;;5073866;28;20003;-69
2023/08/22 06:27:33;;;;;;;;;;;21.40;99.90;;;;;;5073598;28;20342;-68
2023/08/22 06:30:00;;;;;;;;;;;21.50;99.80;;;;;;5073927;28;20943;-68
2023/08/22 06:32:25;;;;;;;;;;;21.50;99.70;;;;;;5073419;28;19916;-67
2023/08/22 06:34:51;;;;;;;;;;;21.60;99.40;;;;;;5073827;28;20316;-68
2023/08/22 06:37:17;;;;;;;;;;;21.70;98.90;;;;;;5073455;28;20269;-68
2023/08/22 06:39:42;;;;;;;;;;;21.80;98.70;;;;;;5072262;28;19985;-68
2023/08/22 06:42:08;;;;;;;;;;;21.80;98.50;;;;;;5069142;28;19920;-67
2023/08/22 06:44:33;;;;;;;;;;;21.90;98.40;;;;;;5058586;28;19967;-68
2023/08/22 06:46:59;;;;;;;;;;;21.90;98.30;;;;;;5073382;28;19924;-68
2023/08/22 06:49:24;;;;;;;;;;;22.00;98.50;;;;;;5074039;28;20009;-67
2023/08/22 06:51:50;;;;;;;;;;;22.00;98.30;;;;;;5088955;28;19920;-67
2023/08/22 06:54:15;;;;;;;;;;;22.00;98.30;;;;;;5072218;28;20339;-68
2023/08/22 06:56:41;;;;;;;;;;;22.10;98.30;;;;;;5073338;28;20319;-67
2023/08/22 06:59:06;;;;;;;;;;;22.10;98.00;;;;;;5073122;28;20370;-67
2023/08/22 07:01:32;;;;;;;;;;;22.30;98.40;;;;;;5072533;28;19904;-68
2023/08/22 07:03:57;;;;;;;;;;;22.40;98.10;;;;;;5068712;28;20323;-68
2023/08/22 07:06:23;;;;;;;;;;;22.40;97.90;;;;;;5064687;28;19913;-67
2023/08/22 07:08:50;;;;;;;;;;;22.40;97.60;;;;;;5068642;28;20003;-67
2023/08/22 07:11:16;;;;;;;;;;;22.50;97.50;;;;;;5055830;28;19912;-68
2023/08/22 07:13:42;;;;;;;;;;;22.50;97.30;;;;;;5073251;28;20342;-67
2023/08/22 07:16:07;;;;;;;;;;;22.60;97.20;;;;;;5072888;28;19912;-67
2023/08/22 07:18:33;;;;;;;;;;;22.70;97.50;;;;;;5068190;28;19916;-69
2023/08/22 07:21:04;;;;;;;;;;;22.80;97.60;;;;;;5061310;28;19966;-68
2023/08/22 07:23:30;;;;;;;;;;;22.90;97.40;;;;;;5072416;28;20452;-68
2023/08/22 07:25:55;;;;;;;;;;;23.00;97.40;;;;;;5073229;28;20206;-68
2023/08/22 07:28:21;;;;;;;;;;;23.10;97.60;;;;;;5072866;28;19962;-68
2023/08/22 07:30:47;;;;;;;;;;;23.20;98.00;;;;;;5072826;28;19991;-68
2023/08/22 07:33:13;;;;;;;;;;;23.20;97.60;;;;;;5067874;28;19921;-69
2023/08/22 07:35:38;;;;;;;;;;;23.30;97.60;;;;;;5071528;28;19913;-68
2023/08/22 07:38:04;;;;;;;;;;;23.40;97.50;;;;;;5071301;28;19909;-67
2023/08/22 07:40:30;;;;;;;;;;;23.50;97.50;;;;;;5073497;28;20353;-68
2023/08/22 07:42:56;;;;;;;;;;;23.60;97.20;;;;;;5072335;28;19947;-69
2023/08/22 07:45:22;;;;;;;;;;;23.70;97.20;;;;;;5072359;28;19991;-67
2023/08/22 07:47:47;;;;;;;;;;;23.70;97.30;;;;;;5072392;28;20011;-68
2023/08/22 07:50:13;;;;;;;;;;;23.90;97.30;;;;;;5072247;28;19908;-67
2023/08/22 07:52:38;;;;;;;;;;;24.00;97.00;;;;;;5072674;28;20281;-68
2023/08/22 07:55:05;;;;;;;;;;;24.10;96.60;;;;;;5072362;28;19977;-69
2023/08/22 07:57:31;;;;;;;;;;;24.20;96.40;;;;;;5072404;28;19978;-69
2023/08/22 07:59:57;;;;;;;;;;;24.40;96.50;;;;;;5087686;28;19916;-68
2023/08/22 08:02:22;;;;;;;;;;;24.50;96.20;;;;;;5072135;28;19920;-68
2023/08/22 08:04:48;;;;;;;;;;;24.40;95.80;;;;;;5088207;28;19923;-68
2023/08/22 08:07:15;;;;;;;;;;;24.40;95.70;;;;;;5071984;28;20059;-70
2023/08/22 08:09:40;;;;;;;;;;;24.50;95.90;;;;;;5072094;28;19924;-68
2023/08/22 08:12:06;;;;;;;;;;;24.50;95.40;;;;;;5071893;28;19926;-69
2023/08/22 08:14:32;;;;;;;;;;;24.50;95.40;;;;;;5071621;28;20316;-69
2023/08/22 08:16:57;;;;;;;;;;;24.70;95.10;;;;;;5072303;28;20261;-68
2023/08/22 08:19:23;;;;;;;;;;;24.80;95.10;;;;;;5071619;28;19916;-67
2023/08/22 08:21:49;;;;;;;;;;;25.00;95.00;;;;;;5071586;28;19935;-69
2023/08/22 08:24:15;;;;;;;;;;;25.20;94.70;;;;;;5071573;28;19948;-68
2023/08/22 08:26:40;;;;;;;;;;;25.60;94.40;;;;;;5072108;28;19920;-68
2023/08/22 08:29:06;;;;;;;;;;;26.00;93.80;;;;;;5071690;28;19965;-68
2023/08/22 08:31:31;;;;;;;;;;;26.70;93.50;;;;;;5071911;28;19995;-68
2023/08/22 08:33:57;;;;;;;;;;;27.30;92.90;;;;;;5070559;28;19936;-68
2023/08/22 08:36:23;;;;;;;;;;;27.60;92.00;;;;;;5071172;28;19946;-68
2023/08/22 08:38:48;;;;;;;;;;;27.60;91.50;;;;;;5071510;28;19920;-69
2023/08/22 08:41:15;;;;;;;;;;;27.30;91.10;;;;;;5071183;28;19909;-69
2023/08/22 08:43:40;;;;;;;;;;;27.40;91.30;;;;;;5071738;28;20342;-69
2023/08/22 08:46:06;;;;;;;;;;;28.10;90.60;;;;;;5087184;28;19916;-68
2023/08/22 08:48:32;;;;;;;;;;;28.30;90.20;;;;;;5071029;28;19913;-69
2023/08/22 08:50:59;;;;;;;;;;;28.20;89.80;;;;;;5069961;28;19912;-69
2023/08/22 08:53:25;;;;;;;;;;;28.40;88.90;;;;;;5071156;28;19966;-70
2023/08/22 08:55:51;;;;;;;;;;;28.40;88.80;;;;;;5071439;28;19955;-70
2023/08/22 08:58:16;;;;;;;;;;;28.20;89.30;;;;;;5070633;28;19912;-69
2023/08/22 09:00:43;;;;;;;;;;;28.20;88.30;;;;;;5070968;28;20333;-68
2023/08/22 09:03:09;;;;;;;;;;;27.70;87.80;;;;;;5070993;28;19920;-68
2023/08/22 09:05:34;;;;;;;;;;;27.50;88.90;;;;;;5071054;28;19912;-68
2023/08/22 09:08:16;;;;;;;;;;;27.30;88.20;;;;;;5070985;28;19924;-69
2023/08/22 09:10:41;;;;;;;;;;;27.20;88.80;;;;;;5087039;28;19916;-69
2023/08/22 09:13:07;;;;;;;;;;;27.00;89.60;;;;;;5070836;28;19913;-69
2023/08/22 09:15:33;;;;;;;;;;;26.90;89.40;;;;;;5066427;28;20428;-69
2023/08/22 09:17:58;;;;;;;;;;;26.90;89.70;;;;;;5059344;28;19952;-68
2023/08/22 09:20:24;;;;;;;;;;;27.00;90.00;;;;;;5066404;28;19913;-69
2023/08/22 09:22:49;;;;;;;;;;;26.70;89.80;;;;;;5051048;28;19913;-69
2023/08/22 09:25:16;;;;;;;;;;;26.60;90.20;;;;;;5069289;28;19916;-69
2023/08/22 09:27:42;;;;;;;;;;;26.50;90.20;;;;;;5070475;28;19917;-69
2023/08/22 09:30:07;;;;;;;;;;;26.70;90.20;;;;;;5069172;28;20236;-69
2023/08/22 09:32:33;;;;;;;;;;;26.80;90.10;;;;;;5086015;28;19912;-68
2023/08/22 09:35:00;;;;;;;;;;;26.70;89.60;;;;;;5070685;28;19924;-69
2023/08/22 09:37:29;;;;;;;;;;;27.00;89.50;;;;;;5066026;28;19917;-67
2023/08/22 09:39:56;;;;;;;;;;;27.40;89.20;;;;;;5066400;28;19921;-69
2023/08/22 09:42:22;;;;;;;;;;;27.90;88.20;;;;;;5070339;28;19913;-70
2023/08/22 09:44:48;;;;;;;;;;;28.40;86.60;;;;;;5065823;28;19924;-68
2023/08/22 09:47:15;;;;;;;;;;;28.30;85.20;;;;;;5055273;28;19912;-69
2023/08/22 09:49:40;;;;;;;;;;;28.30;86.70;;;;;;5074654;28;20041;-69
2023/08/22 09:52:06;;;;;;;;;;;28.40;84.40;;;;;;5074408;28;20011;-68
2023/08/22 09:54:33;;;;;;;;;;;28.20;84.50;;;;;;5072851;28;19990;-68
2023/08/22 09:56:59;;;;;;;;;;;28.10;84.60;;;;;;5089884;28;19912;-68
2023/08/22 09:59:25;;;;;;;;;;;28.00;84.80;;;;;;5073851;28;19917;-69
2023/08/22 10:01:51;;;;;;;;;;;28.00;85.40;;;;;;5074147;28;19924;-69
2023/08/22 10:04:17;;;;;;;;;;;27.90;84.10;;;;;;5073771;28;19923;-68
2023/08/22 10:06:44;;;;;;;;;;;27.60;84.50;;;;;;5074067;28;19913;-69
2023/08/22 10:09:12;;;;;;;;;;;27.80;84.10;;;;;;5073911;28;19916;-69
2023/08/22 10:11:41;;;;;;;;;;;27.70;84.60;;;;;;5074018;28;19913;-69
2023/08/22 10:14:06;;;;;;;;;;;28.40;84.60;;;;;;5072610;28;19912;-69
2023/08/22 10:16:33;;;;;;;;;;;28.60;83.70;;;;;;5074192;28;19915;-68
2023/08/22 10:19:02;;;;;;;;;;;28.80;82.60;;;;;;5073663;28;19928;-68
2023/08/22 10:21:39;;;;;;;;;;;28.90;81.90;;;;;;5073908;28;20338;-67
2023/08/22 10:24:05;;;;;;;;;;;29.70;82.40;;;;;;5073908;28;19913;-68
2023/08/22 10:26:46;;;;;;;;;;;30.30;79.70;;;;;;5073588;28;20294;-68
2023/08/22 10:29:16;;;;;;;;;;;30.80;78.90;;;;;;5072617;28;19947;-69
2023/08/22 10:32:00;;;;;;;;;;;30.80;77.60;;;;;;5073983;28;20308;-69
2023/08/22 10:34:26;;;;;;;;;;;30.70;77.40;;;;;;5073454;28;20016;-68
2023/08/22 10:37:01;;;;;;;;;;;30.10;76.80;;;;;;5073268;28;20361;-69
2023/08/22 10:39:40;;;;;;;;;;;30.00;77.40;;;;;;5068925;28;19917;-70
2023/08/22 10:42:18;;;;;;;;;;;31.00;75.80;;;;;;5063180;28;19927;-68
2023/08/22 10:44:47;;;;;;;;;;;31.10;74.50;;;;;;5073335;28;20262;-69
2023/08/22 10:47:16;;;;;;;;;;;30.30;74.10;;;;;;5073512;28;19909;-69
2023/08/22 10:49:43;;;;;;;;;;;29.80;74.80;;;;;;5073715;28;19909;-69
2023/08/22 10:52:09;;;;;;;;;;;29.50;75.10;;;;;;5073596;28;20007;-69
2023/08/22 10:54:54;;;;;;;;;;;28.80;76.80;;;;;;5073742;28;19923;-69
2023/08/22 10:57:19;;;;;;;;;;;29.40;76.20;;;;;;5072815;28;19913;-68
2023/08/22 10:59:55;;;;;;;;;;;28.90;76.00;;;;;;5073527;28;19973;-69
2023/08/22 11:02:21;;;;;;;;;;;28.90;77.10;;;;;;5073345;28;19916;-69
2023/08/22 11:04:47;;;;;;;;;;;29.20;76.90;;;;;;5073737;28;19920;-68
2023/08/22 11:07:13;;;;;;;;;;;29.40;76.20;;;;;;5072943;28;20058;-68
2023/08/22 11:09:39;;;;;;;;;;;29.40;76.60;;;;;;5073161;28;19977;-68
2023/08/22 11:12:16;;;;;;;;;;;29.30;76.50;;;;;;5088974;28;20390;-68
2023/08/22 11:14:45;;;;;;;;;;;29.20;76.70;;;;;;5073029;28;19912;-68
2023/08/22 11:17:18;;;;;;;;;;;29.00;77.80;;;;;;5073078;28;19917;-69
2023/08/22 11:19:45;;;;;;;;;;;29.40;76.80;;;;;;5073477;28;19913;-69
2023/08/22 11:22:11;;;;;;;;;;;29.40;77.20;;;;;;5068610;28;19917;-70
2023/08/22 11:24:37;;;;;;;;;;;29.10;76.90;;;;;;5065261;28;19923;-68
2023/08/22 11:27:05;;;;;;;;;;;28.90;76.90;;;;;;5072747;28;20262;-68
2023/08/22 11:29:44;;;;;;;;;;;28.90;77.50;;;;;;5072824;28;19948;-69
2023/08/22 11:32:20;;;;;;;;;;;29.10;77.60;;;;;;5073016;28;19908;-69
2023/08/22 11:34:46;;;;;;;;;;;29.10;77.10;;;;;;5073601;28;20338;-69
2023/08/22 11:37:12;;;;;;;;;;;28.90;77.30;;;;;;5072726;28;19912;-69
2023/08/22 11:39:37;;;;;;;;;;;29.00;77.80;;;;;;5072622;28;19916;-68
2023/08/22 11:42:04;;;;;;;;;;;29.10;77.80;;;;;;5072540;28;20016;-69
2023/08/22 11:44:29;;;;;;;;;;;29.00;77.50;;;;;;5072857;28;19916;-69
2023/08/22 11:46:55;;;;;;;;;;;28.80;77.60;;;;;;5073076;28;19973;-69
2023/08/22 11:49:21;;;;;;;;;;;28.50;77.20;;;;;;5072128;28;20360;-69
2023/08/22 11:51:51;;;;;;;;;;;28.50;77.30;;;;;;5072724;28;19990;-68
2023/08/22 11:54:24;;;;;;;;;;;28.60;77.10;;;;;;5071498;28;19916;-69
2023/08/22 11:56:50;;;;;;;;;;;28.50;76.90;;;;;;5072448;28;19912;-69
2023/08/22 11:59:15;;;;;;;;;;;28.40;76.10;;;;;;5071172;28;19943;-68
2023/08/22 12:01:41;;;;;;;;;;;28.50;76.10;;;;;;5072995;28;19912;-68
2023/08/22 12:04:07;;;;;;;;;;;28.60;75.80;;;;;;5072517;28;20354;-69
2023/08/22 12:06:32;;;;;;;;;;;28.60;75.20;;;;;;5072036;28;19919;-68
2023/08/22 12:09:00;;;;;;;;;;;28.60;75.00;;;;;;5071099;28;19920;-68
2023/08/22 12:11:26;;;;;;;;;;;28.70;74.30;;;;;;5072171;28;20000;-67
2023/08/22 12:13:52;;;;;;;;;;;28.60;73.10;;;;;;5072452;28;19919;-68
2023/08/22 12:16:18;;;;;;;;;;;28.50;71.30;;;;;;5071958;28;19917;-68
2023/08/22 12:18:43;;;;;;;;;;;28.40;71.60;;;;;;5069197;28;19917;-68
2023/08/22 12:21:09;;;;;;;;;;;28.40;72.40;;;;;;5072216;28;20246;-68
2023/08/22 12:23:34;;;;;;;;;;;28.10;72.10;;;;;;5070819;28;19966;-69
2023/08/22 12:26:00;;;;;;;;;;;28.10;73.10;;;;;;5071798;28;19916;-68
2023/08/22 12:28:26;;;;;;;;;;;28.30;73.70;;;;;;5072490;28;19962;-69
2023/08/22 12:30:51;;;;;;;;;;;28.50;73.00;;;;;;5071851;28;20216;-68
2023/08/22 12:33:17;;;;;;;;;;;28.30;71.50;;;;;;5087268;28;19920;-67
2023/08/22 12:35:43;;;;;;;;;;;28.50;72.50;;;;;;5071435;28;19916;-68
2023/08/22 12:38:08;;;;;;;;;;;28.60;72.40;;;;;;5071440;28;19919;-68
2023/08/22 12:40:34;;;;;;;;;;;28.60;72.10;;;;;;5072303;28;19909;-69
2023/08/22 12:43:00;;;;;;;;;;;28.60;72.90;;;;;;5071537;28;19978;-68
2023/08/22 12:45:26;;;;;;;;;;;28.60;73.50;;;;;;5071673;28;20349;-67
2023/08/22 12:47:52;;;;;;;;;;;28.50;72.90;;;;;;5071325;28;20321;-68
2023/08/22 12:50:17;;;;;;;;;;;28.20;73.00;;;;;;5071626;28;19909;-70
2023/08/22 12:52:43;;;;;;;;;;;28.30;73.50;;;;;;5071662;28;19909;-68
2023/08/22 12:55:09;;;;;;;;;;;28.30;73.70;;;;;;5071319;28;19920;-68
2023/08/22 12:57:41;;;;;;;;;;;28.30;72.70;;;;;;5071279;28;19912;-68
2023/08/22 13:00:10;;;;;;;;;;;28.40;73.80;;;;;;5067028;28;20015;-69
2023/08/22 13:02:36;;;;;;;;;;;28.50;74.10;;;;;;5055239;28;20026;-69
2023/08/22 13:05:02;;;;;;;;;;;28.60;73.90;;;;;;5071298;28;19919;-70
2023/08/22 13:07:28;;;;;;;;;;;28.60;73.10;;;;;;5071625;28;19909;-68
2023/08/22 13:09:54;;;;;;;;;;;28.70;72.80;;;;;;5071221;28;20390;-68
2023/08/22 13:12:19;;;;;;;;;;;28.60;71.00;;;;;;5069991;28;19942;-69
2023/08/22 13:14:45;;;;;;;;;;;28.60;71.60;;;;;;5070964;28;19916;-68
2023/08/22 13:17:11;;;;;;;;;;;28.50;72.40;;;;;;5071266;28;20343;-68
2023/08/22 13:19:36;;;;;;;;;;;28.50;72.10;;;;;;5071501;28;20215;-69
2023/08/22 13:22:02;;;;;;;;;;;28.40;72.20;;;;;;5070937;28;20331;-69
2023/08/22 13:24:28;;;;;;;;;;;28.50;72.20;;;;;;5070752;28;19912;-68
2023/08/22 13:26:53;;;;;;;;;;;28.50;70.70;;;;;;5070846;28;19913;-68
2023/08/22 13:29:19;;;;;;;;;;;28.40;70.50;;;;;;5070593;28;19912;-68
2023/08/22 13:31:46;;;;;;;;;;;28.50;71.30;;;;;;5071492;28;19915;-68
2023/08/22 13:34:11;;;;;;;;;;;28.40;71.50;;;;;;5070761;28;19940;-68
2023/08/22 13:36:37;;;;;;;;;;;28.40;72.30;;;;;;5070898;28;19913;-70
2023/08/22 13:39:04;;;;;;;;;;;28.20;72.80;;;;;;5070749;28;19923;-68
2023/08/22 13:41:29;;;;;;;;;;;28.10;73.10;;;;;;5070699;28;19916;-69
2023/08/22 13:43:55;;;;;;;;;;;28.20;72.40;;;;;;5071230;28;19912;-67
2023/08/22 13:46:21;;;;;;;;;;;28.00;71.40;;;;;;5070575;28;19959;-68
2023/08/22 13:48:47;;;;;;;;;;;28.00;72.60;;;;;;5070480;28;19967;-68
2023/08/22 13:51:13;;;;;;;;;;;27.90;72.50;;;;;;5086504;28;20342;-68
2023/08/22 13:53:39;;;;;;;;;;;27.90;73.20;;;;;;5070573;28;20243;-67
2023/08/22 13:56:04;;;;;;;;;;;28.10;74.00;;;;;;5070449;28;20026;-68
2023/08/22 13:58:30;;;;;;;;;;;28.00;73.60;;;;;;5070908;28;20022;-67
2023/08/22 14:00:55;;;;;;;;;;;27.70;73.80;;;;;;5070698;28;19917;-68
2023/08/22 14:03:21;;;;;;;;;;;27.90;74.30;;;;;;5070462;28;19998;-68
2023/08/22 14:05:47;;;;;;;;;;;28.00;74.50;;;;;;5070442;28;19967;-68
2023/08/22 14:08:12;;;;;;;;;;;28.00;73.80;;;;;;5070245;28;20369;-68
2023/08/22 14:10:38;;;;;;;;;;;27.80;73.80;;;;;;5070769;28;19971;-67